Time;durP1;ratioP1;P1;durP2;ratioP2;P2;SDS_P1;SDS_P2;PMS_P1;PMS_P2;Temp;Humidity;BMP_temperature;BMP_pressure;BME280_temperature;BME280_humidity;BME280_pressure;Samples;Min_cycle;Max_cycle;Signal;HPM_P1;HPM_P2
2021/11/15 00:01:05;;;;;;;6.45;3.85;;;;;;;;;;2085186;28;20029;-84
2021/11/15 00:02:25;;;;;;;6.47;3.72;;;;;;;;;;2086443;28;20048;-84
2021/11/15 00:03:44;;;;;;;5.03;3.45;;;;;;;;;;2085347;28;20025;-84
2021/11/15 00:05:03;;;;;;;4.32;3.92;;;;;;;;;;2084097;28;20033;-83
2021/11/15 00:06:22;;;;;;;5.32;3.33;;;;;;;;;;2088136;28;20428;-83
2021/11/15 00:07:41;;;;;;;5.85;3.45;;;;;;;;;;2082897;28;20041;-83
2021/11/15 00:09:00;;;;;;;5.40;3.33;;;;;;;;;;2084747;28;20024;-83
2021/11/15 00:10:18;;;;;;;5.53;3.17;;;;;;;;;;2084805;28;20033;-83
2021/11/15 00:11:37;;;;;;;6.75;3.45;;;;;;;;;;2085191;28;20033;-84
2021/11/15 00:12:56;;;;;;;3.28;2.97;;;;;;;;;;2093668;28;20464;-83
2021/11/15 00:14:14;;;;;;;6.45;3.30;;;;;;;;;;2091431;28;20033;-83
2021/11/15 00:15:34;;;;;;;5.32;3.13;;;;;;;;;;2089313;28;20509;-83
2021/11/15 00:16:53;;;;;;;5.25;3.15;;;;;;;;;;2086082;28;20033;-83
2021/11/15 00:18:12;;;;;;;6.82;3.28;;;;;;;;;;2088078;28;20033;-83
2021/11/15 00:19:31;;;;;;;5.32;3.13;;;;;;;;;;2088740;28;20485;-83
2021/11/15 00:20:50;;;;;;;4.10;3.13;;;;;;;;;;2085685;28;20037;-83
2021/11/15 00:22:09;;;;;;;7.10;3.58;;;;;;;;;;2085868;28;20057;-83
2021/11/15 00:23:28;;;;;;;3.85;2.80;;;;;;;;;;2085096;28;20033;-83
2021/11/15 00:24:47;;;;;;;5.72;3.45;;;;;;;;;;2085331;28;20029;-83
2021/11/15 00:26:06;;;;;;;4.78;3.22;;;;;;;;;;2085248;28;20029;-83
2021/11/15 00:27:24;;;;;;;5.82;3.25;;;;;;;;;;2088407;28;20033;-83
2021/11/15 00:28:43;;;;;;;7.43;3.35;;;;;;;;;;2084052;28;20068;-83
2021/11/15 00:30:03;;;;;;;5.22;3.05;;;;;;;;;;2085183;28;20064;-83
2021/11/15 00:31:24;;;;;;;10.60;3.13;;;;;;;;;;2087803;28;20037;-83
2021/11/15 00:32:43;;;;;;;7.45;3.10;;;;;;;;;;2087230;28;20021;-83
2021/11/15 00:34:02;;;;;;;6.65;3.33;;;;;;;;;;2088383;28;20061;-83
2021/11/15 00:35:21;;;;;;;5.10;3.13;;;;;;;;;;2082021;28;20045;-84
2021/11/15 00:36:40;;;;;;;4.75;3.00;;;;;;;;;;2087649;28;20025;-83
2021/11/15 00:37:59;;;;;;;4.68;2.90;;;;;;;;;;2082239;28;20030;-83
2021/11/15 00:39:17;;;;;;;7.00;3.20;;;;;;;;;;2084932;28;20037;-82
2021/11/15 00:40:36;;;;;;;4.90;3.35;;;;;;;;;;2087436;28;20033;-83
2021/11/15 00:41:55;;;;;;;6.78;3.45;;;;;;;;;;2084201;28;20029;-82
2021/11/15 00:43:14;;;;;;;4.43;3.30;;;;;;;;;;2089691;28;20052;-83
2021/11/15 00:44:34;;;;;;;6.30;3.17;;;;;;;;;;2088351;28;20124;-83
2021/11/15 00:45:53;;;;;;;6.53;3.35;;;;;;;;;;2086642;28;20029;-83
2021/11/15 00:47:12;;;;;;;8.95;3.22;;;;;;;;;;2083339;28;20024;-83
2021/11/15 00:48:31;;;;;;;11.63;3.22;;;;;;;;;;2086315;28;20033;-83
2021/11/15 00:49:50;;;;;;;10.50;3.58;;;;;;;;;;2084284;28;20112;-84
2021/11/15 00:51:09;;;;;;;9.23;3.53;;;;;;;;;;2083295;28;20060;-83
2021/11/15 00:52:27;;;;;;;6.00;3.15;;;;;;;;;;2087573;28;20033;-83
2021/11/15 00:53:46;;;;;;;3.70;3.08;;;;;;;;;;2084407;28;20033;-83
2021/11/15 00:55:06;;;;;;;5.00;3.55;;;;;;;;;;2085648;28;20025;-83
2021/11/15 00:56:25;;;;;;;3.83;3.17;;;;;;;;;;2088616;28;20517;-83
2021/11/15 00:57:45;;;;;;;8.07;3.78;;;;;;;;;;2083095;28;20475;-83
2021/11/15 00:59:04;;;;;;;6.30;3.35;;;;;;;;;;2082940;28;20101;-83
2021/11/15 01:00:25;;;;;;;4.60;3.30;;;;;;;;;;2085431;28;20104;-83
2021/11/15 01:01:45;;;;;;;5.38;2.90;;;;;;;;;;2086162;28;20021;-83
2021/11/15 01:03:07;;;;;;;3.42;3.10;;;;;;;;;;2090591;28;20014;-83
2021/11/15 01:04:26;;;;;;;4.82;2.80;;;;;;;;;;2092116;28;20029;-83
2021/11/15 01:05:47;;;;;;;7.70;3.33;;;;;;;;;;2087779;28;20041;-83
2021/11/15 01:07:06;;;;;;;3.35;2.83;;;;;;;;;;2085274;28;20117;-83
2021/11/15 01:08:25;;;;;;;3.95;3.08;;;;;;;;;;2084503;28;20017;-83
2021/11/15 01:09:44;;;;;;;4.80;3.08;;;;;;;;;;2088696;28;20021;-83
2021/11/15 01:11:04;;;;;;;5.90;2.88;;;;;;;;;;2090568;28;20033;-84
2021/11/15 01:12:24;;;;;;;5.32;3.08;;;;;;;;;;2085951;28;20021;-83
2021/11/15 01:13:43;;;;;;;3.35;3.05;;;;;;;;;;2085284;28;20033;-83
2021/11/15 01:15:02;;;;;;;4.03;3.00;;;;;;;;;;2087511;28;20029;-83
2021/11/15 01:16:21;;;;;;;7.35;3.10;;;;;;;;;;2086542;28;20033;-83
2021/11/15 01:17:41;;;;;;;3.47;3.00;;;;;;;;;;2084189;28;20179;-83
2021/11/15 01:19:00;;;;;;;3.78;3.15;;;;;;;;;;2085456;28;20017;-83
2021/11/15 01:20:21;;;;;;;5.70;2.95;;;;;;;;;;2088499;28;20025;-83
2021/11/15 01:21:41;;;;;;;5.13;3.22;;;;;;;;;;2089870;28;20485;-84
2021/11/15 01:23:00;;;;;;;5.82;2.78;;;;;;;;;;2085186;28;20024;-83
2021/11/15 01:24:19;;;;;;;4.18;2.92;;;;;;;;;;2088869;28;20108;-83
2021/11/15 01:25:39;;;;;;;6.38;3.03;;;;;;;;;;2088295;28;20025;-83
2021/11/15 01:26:58;;;;;;;4.80;3.08;;;;;;;;;;2087713;28;20020;-83
2021/11/15 01:28:17;;;;;;;4.18;3.20;;;;;;;;;;2086687;28;20037;-83
2021/11/15 01:29:36;;;;;;;3.05;2.85;;;;;;;;;;2088452;28;20397;-83
2021/11/15 01:30:55;;;;;;;4.15;3.55;;;;;;;;;;2083120;28;20025;-83
2021/11/15 01:32:14;;;;;;;4.05;2.97;;;;;;;;;;2087710;28;20056;-83
2021/11/15 01:33:32;;;;;;;6.20;3.53;;;;;;;;;;2085241;28;20029;-83
2021/11/15 01:34:51;;;;;;;3.95;2.85;;;;;;;;;;2084551;28;20033;-83
2021/11/15 01:36:10;;;;;;;4.07;2.60;;;;;;;;;;2083961;28;20032;-83
2021/11/15 01:37:29;;;;;;;3.20;2.92;;;;;;;;;;2088563;28;20033;-83
2021/11/15 01:38:48;;;;;;;3.72;3.17;;;;;;;;;;2087893;28;20033;-83
2021/11/15 01:40:10;;;;;;;5.00;3.05;;;;;;;;;;2084831;28;20037;-83
2021/11/15 01:41:29;;;;;;;3.03;2.83;;;;;;;;;;2092795;28;20115;-83
2021/11/15 01:42:48;;;;;;;2.95;2.65;;;;;;;;;;2088224;28;20404;-83
2021/11/15 01:44:07;;;;;;;4.20;3.08;;;;;;;;;;2084312;28;20029;-83
2021/11/15 01:45:27;;;;;;;2.92;2.55;;;;;;;;;;2084735;28;20425;-83
2021/11/15 01:46:47;;;;;;;4.65;2.85;;;;;;;;;;2088623;28;21048;-83
2021/11/15 01:48:08;;;;;;;3.65;2.70;;;;;;;;;;2081210;28;20532;-83
2021/11/15 01:49:27;;;;;;;3.95;2.90;;;;;;;;;;2087821;28;20028;-84
2021/11/15 01:50:46;;;;;;;3.63;2.83;;;;;;;;;;2088584;28;20020;-83
2021/11/15 01:52:05;;;;;;;9.55;2.83;;;;;;;;;;2086644;28;20092;-83
2021/11/15 01:53:24;;;;;;;5.72;3.00;;;;;;;;;;2087194;28;20037;-83
2021/11/15 01:54:43;;;;;;;3.75;2.97;;;;;;;;;;2089987;28;20025;-83
2021/11/15 01:56:03;;;;;;;3.28;2.70;;;;;;;;;;2091978;28;20036;-83
2021/11/15 01:57:22;;;;;;;2.90;2.70;;;;;;;;;;2087496;28;20032;-83
2021/11/15 01:58:41;;;;;;;2.97;2.70;;;;;;;;;;2089495;28;20033;-83
2021/11/15 01:59:59;;;;;;;5.22;2.97;;;;;;;;;;2087730;28;20516;-83
2021/11/15 02:01:19;;;;;;;6.53;2.88;;;;;;;;;;2086801;28;20029;-83
2021/11/15 02:02:38;;;;;;;4.60;3.08;;;;;;;;;;2087456;28;20034;-83
2021/11/15 02:03:57;;;;;;;3.03;2.70;;;;;;;;;;2084503;28;20400;-83
2021/11/15 02:05:17;;;;;;;4.45;2.88;;;;;;;;;;2088578;28;20398;-83
2021/11/15 02:06:36;;;;;;;3.17;2.88;;;;;;;;;;2085694;28;20041;-83
2021/11/15 02:07:54;;;;;;;3.60;3.08;;;;;;;;;;2086888;28;20037;-83
2021/11/15 02:09:13;;;;;;;3.28;2.97;;;;;;;;;;2091106;28;20021;-83
2021/11/15 02:10:32;;;;;;;4.40;2.78;;;;;;;;;;2088805;28;20033;-83
2021/11/15 02:11:51;;;;;;;3.15;2.83;;;;;;;;;;2088930;28;20021;-83
2021/11/15 02:13:12;;;;;;;3.22;2.92;;;;;;;;;;2087726;28;20163;-83
2021/11/15 02:14:31;;;;;;;4.88;3.60;;;;;;;;;;2087072;28;20037;-82
2021/11/15 02:15:53;;;;;;;3.85;2.78;;;;;;;;;;2085965;28;20025;-83
2021/11/15 02:17:13;;;;;;;8.38;3.00;;;;;;;;;;2086395;28;20033;-83
2021/11/15 02:18:32;;;;;;;3.80;3.08;;;;;;;;;;2084746;28;20033;-83
2021/11/15 02:19:52;;;;;;;4.80;2.97;;;;;;;;;;2085590;28;20028;-83
2021/11/15 02:21:10;;;;;;;4.68;2.72;;;;;;;;;;2087084;28;20389;-83
2021/11/15 02:22:29;;;;;;;4.80;3.05;;;;;;;;;;2090487;28;20033;-83
2021/11/15 02:23:48;;;;;;;3.72;2.67;;;;;;;;;;2089580;28;20121;-83
2021/11/15 02:25:08;;;;;;;3.17;2.88;;;;;;;;;;2084211;28;20029;-84
2021/11/15 02:26:28;;;;;;;4.20;2.72;;;;;;;;;;2086510;28;20049;-83
2021/11/15 02:27:47;;;;;;;5.05;2.70;;;;;;;;;;2085892;28;20037;-83
2021/11/15 02:29:06;;;;;;;2.83;2.63;;;;;;;;;;2087335;28;20021;-83
2021/11/15 02:30:26;;;;;;;3.05;2.83;;;;;;;;;;2085669;28;20025;-83
2021/11/15 02:31:45;;;;;;;3.10;2.80;;;;;;;;;;2088157;28;20087;-83
2021/11/15 02:33:04;;;;;;;6.22;3.05;;;;;;;;;;2087960;28;20033;-83
2021/11/15 02:34:23;;;;;;;5.25;3.00;;;;;;;;;;2087572;28;20029;-83
2021/11/15 02:35:42;;;;;;;8.60;3.92;;;;;;;;;;2088290;28;20497;-83
2021/11/15 02:37:01;;;;;;;6.63;3.33;;;;;;;;;;2085678;28;20453;-83
2021/11/15 02:38:20;;;;;;;12.55;3.55;;;;;;;;;;2090373;28;20029;-83
2021/11/15 02:39:39;;;;;;;7.38;3.38;;;;;;;;;;2088685;28;20028;-83
2021/11/15 02:40:58;;;;;;;4.47;3.20;;;;;;;;;;2089972;28;20021;-83
2021/11/15 02:42:17;;;;;;;10.52;3.80;;;;;;;;;;2087343;28;20807;-82
2021/11/15 02:43:36;;;;;;;6.30;3.40;;;;;;;;;;2084494;28;20045;-83
2021/11/15 02:44:55;;;;;;;7.47;2.72;;;;;;;;;;2086115;28;20037;-83
2021/11/15 02:46:14;;;;;;;6.65;3.83;;;;;;;;;;2086300;28;20017;-83
2021/11/15 02:47:33;;;;;;;7.47;3.70;;;;;;;;;;2085961;28;20448;-83
2021/11/15 02:48:52;;;;;;;6.35;3.10;;;;;;;;;;2085790;28;20022;-83
2021/11/15 02:50:13;;;;;;;6.53;3.47;;;;;;;;;;2088759;28;20026;-83
2021/11/15 02:51:31;;;;;;;4.97;2.65;;;;;;;;;;2088604;28;20030;-83
2021/11/15 02:52:52;;;;;;;6.57;2.90;;;;;;;;;;2089371;28;20460;-83
2021/11/15 02:54:10;;;;;;;8.35;2.75;;;;;;;;;;2084472;28;20029;-83
2021/11/15 02:55:31;;;;;;;6.65;2.90;;;;;;;;;;2087985;28;20025;-83
2021/11/15 02:56:50;;;;;;;6.72;3.03;;;;;;;;;;2085503;28;20028;-83
2021/11/15 02:58:10;;;;;;;3.00;2.72;;;;;;;;;;2089964;28;20120;-83
2021/11/15 02:59:29;;;;;;;4.32;2.53;;;;;;;;;;2086852;28;20041;-83
2021/11/15 03:00:53;;;;;;;3.25;2.40;;;;;;;;;;2088372;28;20037;-83
2021/11/15 03:02:13;;;;;;;5.10;2.55;;;;;;;;;;2094126;28;20025;-83
2021/11/15 03:03:32;;;;;;;3.17;2.15;;;;;;;;;;2087770;28;20045;-83
2021/11/15 03:04:51;;;;;;;2.45;2.05;;;;;;;;;;2085093;28;20029;-83
2021/11/15 03:06:11;;;;;;;2.47;2.28;;;;;;;;;;2086372;28;20040;-83
2021/11/15 03:07:29;;;;;;;3.53;2.22;;;;;;;;;;2085400;28;20445;-83
2021/11/15 03:08:48;;;;;;;2.70;2.50;;;;;;;;;;2084741;28;20033;-83
2021/11/15 03:10:08;;;;;;;2.67;2.47;;;;;;;;;;2084873;28;20025;-83
2021/11/15 03:11:26;;;;;;;5.57;2.95;;;;;;;;;;2085799;28;20148;-83
2021/11/15 03:12:46;;;;;;;3.33;2.97;;;;;;;;;;2088887;28;20046;-84
2021/11/15 03:14:05;;;;;;;4.93;2.90;;;;;;;;;;2088615;28;20037;-83
2021/11/15 03:15:31;;;;;;;6.45;3.30;;;;;;;;;;2089129;28;20025;-82
2021/11/15 03:16:50;;;;;;;3.67;2.63;;;;;;;;;;2094707;28;20372;-83
2021/11/15 03:18:12;;;;;;;2.88;2.67;;;;;;;;;;2087775;28;20049;-83
2021/11/15 03:19:31;;;;;;;3.65;3.08;;;;;;;;;;2088878;28;20036;-83
2021/11/15 03:21:00;;;;;;;5.82;3.30;;;;;;;;;;2086838;28;20037;-83
2021/11/15 03:22:19;;;;;;;3.17;2.88;;;;;;;;;;2094776;28;20024;-83
2021/11/15 03:23:39;;;;;;;4.80;3.55;;;;;;;;;;2087507;28;20072;-83
2021/11/15 03:24:58;;;;;;;5.13;3.28;;;;;;;;;;2083158;28;20041;-83
2021/11/15 03:26:17;;;;;;;6.20;3.55;;;;;;;;;;2085289;28;20116;-83
2021/11/15 03:27:36;;;;;;;3.78;3.13;;;;;;;;;;2092454;28;20025;-83
2021/11/15 03:28:55;;;;;;;5.75;3.00;;;;;;;;;;2087474;28;20029;-83
2021/11/15 03:30:15;;;;;;;3.05;2.70;;;;;;;;;;2090160;28;20029;-83
2021/11/15 03:31:34;;;;;;;4.15;2.92;;;;;;;;;;2084456;28;20501;-83
2021/11/15 03:32:53;;;;;;;5.03;3.70;;;;;;;;;;2086435;28;20033;-83
2021/11/15 03:34:13;;;;;;;3.55;2.85;;;;;;;;;;2083938;28;20033;-83
2021/11/15 03:35:32;;;;;;;3.53;3.20;;;;;;;;;;2081760;28;21017;-83
2021/11/15 03:36:51;;;;;;;3.90;2.88;;;;;;;;;;2086455;28;20467;-83
2021/11/15 03:38:11;;;;;;;3.40;3.10;;;;;;;;;;2093253;28;20032;-83
2021/11/15 03:39:30;;;;;;;4.43;2.92;;;;;;;;;;2086966;28;20029;-83
2021/11/15 03:40:49;;;;;;;2.78;2.58;;;;;;;;;;2083208;28;20060;-83
2021/11/15 03:42:08;;;;;;;3.13;2.83;;;;;;;;;;2087588;28;20045;-83
2021/11/15 03:43:27;;;;;;;3.42;2.88;;;;;;;;;;2089632;28;20029;-83
2021/11/15 03:44:46;;;;;;;8.75;3.22;;;;;;;;;;2090918;28;20037;-83
2021/11/15 03:46:05;;;;;;;4.15;3.30;;;;;;;;;;2085268;28;20033;-83
2021/11/15 03:47:24;;;;;;;6.82;3.50;;;;;;;;;;2088674;28;20026;-83
2021/11/15 03:48:43;;;;;;;3.85;3.47;;;;;;;;;;2087539;28;20025;-83
2021/11/15 03:50:03;;;;;;;4.95;3.60;;;;;;;;;;2085819;28;20096;-83
2021/11/15 03:51:22;;;;;;;7.50;3.90;;;;;;;;;;2083997;28;20029;-83
2021/11/15 03:52:42;;;;;;;8.45;3.90;;;;;;;;;;2086750;28;20025;-83
2021/11/15 03:54:01;;;;;;;6.65;4.10;;;;;;;;;;2083812;28;20107;-83
2021/11/15 03:55:20;;;;;;;5.55;3.67;;;;;;;;;;2085507;28;20029;-83
2021/11/15 03:56:39;;;;;;;5.25;3.30;;;;;;;;;;2082121;28;20504;-83
2021/11/15 03:57:58;;;;;;;3.85;3.45;;;;;;;;;;2080669;28;20048;-83
2021/11/15 03:59:16;;;;;;;8.10;4.10;;;;;;;;;;2085470;28;20029;-83
2021/11/15 04:00:39;;;;;;;5.80;3.40;;;;;;;;;;2086725;28;20025;-83
2021/11/15 04:01:58;;;;;;;6.38;3.58;;;;;;;;;;2087763;28;20033;-83
2021/11/15 04:03:30;;;;;;;5.25;3.70;;;;;;;;;;2089215;28;20025;-83
2021/11/15 04:04:51;;;;;;;5.20;3.58;;;;;;;;;;2091025;28;20033;-84
2021/11/15 04:06:23;;;;;;;4.60;3.55;;;;;;;;;;2088475;28;20021;-83
2021/11/15 04:07:49;;;;;;;9.15;3.60;;;;;;;;;;2096139;28;20036;-83
2021/11/15 04:09:09;;;;;;;4.32;3.70;;;;;;;;;;2086332;28;20115;-83
2021/11/15 04:10:32;;;;;;;5.35;3.60;;;;;;;;;;2084870;28;20025;-83
2021/11/15 04:11:51;;;;;;;6.95;4.07;;;;;;;;;;2085559;28;20017;-83
2021/11/15 04:13:21;;;;;;;7.28;3.47;;;;;;;;;;2087601;28;20563;-83
2021/11/15 04:14:40;;;;;;;4.60;3.95;;;;;;;;;;2088510;28;20455;-83
2021/11/15 04:16:01;;;;;;;4.50;3.33;;;;;;;;;;2084304;28;20064;-83
2021/11/15 04:17:20;;;;;;;4.43;3.75;;;;;;;;;;2086756;28;20393;-83
2021/11/15 04:18:40;;;;;;;7.28;3.70;;;;;;;;;;2085355;28;20028;-83
2021/11/15 04:20:00;;;;;;;5.00;3.55;;;;;;;;;;2087391;28;20033;-84
2021/11/15 04:21:19;;;;;;;7.68;3.85;;;;;;;;;;2086757;28;20405;-83
2021/11/15 04:22:38;;;;;;;4.95;3.65;;;;;;;;;;2089075;28;20041;-83
2021/11/15 04:23:57;;;;;;;6.65;4.53;;;;;;;;;;2088057;28;20072;-84
2021/11/15 04:25:16;;;;;;;6.68;4.47;;;;;;;;;;2085855;28;20465;-83
2021/11/15 04:26:35;;;;;;;5.65;4.28;;;;;;;;;;2085664;28;20112;-83
2021/11/15 04:27:54;;;;;;;10.70;4.75;;;;;;;;;;2084002;28;20025;-83
2021/11/15 04:29:12;;;;;;;7.93;4.35;;;;;;;;;;2084320;28;20390;-83
2021/11/15 04:30:31;;;;;;;6.78;4.13;;;;;;;;;;2085691;28;20404;-83
2021/11/15 04:31:50;;;;;;;5.50;3.70;;;;;;;;;;2084915;28;20045;-83
2021/11/15 04:33:09;;;;;;;4.13;3.83;;;;;;;;;;2086182;28;20028;-83
2021/11/15 04:34:28;;;;;;;4.10;3.80;;;;;;;;;;2085271;28;20057;-83
2021/11/15 04:35:47;;;;;;;4.53;4.10;;;;;;;;;;2087977;28;20021;-83
2021/11/15 04:37:06;;;;;;;3.97;3.58;;;;;;;;;;2088733;28;20033;-83
2021/11/15 04:38:26;;;;;;;4.07;3.72;;;;;;;;;;2085204;28;20115;-83
2021/11/15 04:39:45;;;;;;;6.18;3.72;;;;;;;;;;2085385;28;20485;-83
2021/11/15 04:41:04;;;;;;;4.18;3.70;;;;;;;;;;2085486;28;20033;-83
2021/11/15 04:42:23;;;;;;;4.55;3.90;;;;;;;;;;2087654;28;20063;-84
2021/11/15 04:43:42;;;;;;;4.85;3.60;;;;;;;;;;2089218;28;20033;-84
2021/11/15 04:45:00;;;;;;;6.35;4.10;;;;;;;;;;2086882;28;20036;-84
2021/11/15 04:46:19;;;;;;;4.78;3.67;;;;;;;;;;2090142;28;20021;-84
2021/11/15 04:47:38;;;;;;;4.68;3.83;;;;;;;;;;2084480;28;20029;-84
2021/11/15 04:48:56;;;;;;;5.85;3.72;;;;;;;;;;2084441;28;20125;-84
2021/11/15 04:50:15;;;;;;;5.25;3.70;;;;;;;;;;2088307;28;20029;-84
2021/11/15 04:51:34;;;;;;;6.28;3.90;;;;;;;;;;2086498;28;20033;-84
2021/11/15 04:52:53;;;;;;;8.63;4.20;;;;;;;;;;2087955;28;20472;-84
2021/11/15 04:54:14;;;;;;;5.47;4.32;;;;;;;;;;2086160;28;20407;-84
2021/11/15 04:55:34;;;;;;;4.43;4.03;;;;;;;;;;2087440;28;20037;-84
2021/11/15 04:56:53;;;;;;;6.95;3.75;;;;;;;;;;2088411;28;20029;-84
2021/11/15 04:58:13;;;;;;;4.13;3.80;;;;;;;;;;2088641;28;20119;-83
2021/11/15 04:59:31;;;;;;;4.28;3.45;;;;;;;;;;2086907;28;20068;-84
2021/11/15 05:00:51;;;;;;;3.78;3.35;;;;;;;;;;2086788;28;20041;-84
2021/11/15 05:02:10;;;;;;;5.72;3.40;;;;;;;;;;2087377;28;20104;-84
2021/11/15 05:03:29;;;;;;;7.07;3.40;;;;;;;;;;2084652;28;20091;-84
2021/11/15 05:04:48;;;;;;;4.40;3.75;;;;;;;;;;2084689;28;20032;-84
2021/11/15 05:06:07;;;;;;;6.95;3.58;;;;;;;;;;2084228;28;20024;-84
2021/11/15 05:07:26;;;;;;;3.13;2.67;;;;;;;;;;2088813;28;20021;-84
2021/11/15 05:08:46;;;;;;;3.53;3.20;;;;;;;;;;2087578;28;20029;-84
2021/11/15 05:10:05;;;;;;;3.80;3.50;;;;;;;;;;2086902;28;20022;-84
2021/11/15 05:11:25;;;;;;;4.28;2.83;;;;;;;;;;2084850;28;20139;-84
2021/11/15 05:12:44;;;;;;;3.67;2.60;;;;;;;;;;2084552;28;20048;-84
2021/11/15 05:14:03;;;;;;;4.07;3.10;;;;;;;;;;2086863;28;20029;-83
2021/11/15 05:15:21;;;;;;;3.22;2.92;;;;;;;;;;2089138;28;20453;-84
2021/11/15 05:16:41;;;;;;;4.60;2.70;;;;;;;;;;2088010;28;20033;-84
2021/11/15 05:18:00;;;;;;;4.38;2.80;;;;;;;;;;2089534;28;20029;-83
2021/11/15 05:19:18;;;;;;;2.65;2.45;;;;;;;;;;2084427;28;20041;-83
2021/11/15 05:20:37;;;;;;;3.40;2.80;;;;;;;;;;2086042;28;20029;-83
2021/11/15 05:21:56;;;;;;;2.83;2.35;;;;;;;;;;2084854;28;20453;-84
2021/11/15 05:23:15;;;;;;;2.70;2.50;;;;;;;;;;2086183;28;20024;-82
2021/11/15 05:24:34;;;;;;;2.70;2.45;;;;;;;;;;2083725;28;20037;-84
2021/11/15 05:25:53;;;;;;;4.03;2.63;;;;;;;;;;2087488;28;20037;-82
2021/11/15 05:27:12;;;;;;;3.08;2.50;;;;;;;;;;2084377;28;20155;-82
2021/11/15 05:28:31;;;;;;;3.67;2.38;;;;;;;;;;2082978;28;20037;-82
2021/11/15 05:29:50;;;;;;;2.58;2.38;;;;;;;;;;2085970;28;20045;-83
2021/11/15 05:31:09;;;;;;;2.35;2.15;;;;;;;;;;2084255;28;20108;-82
2021/11/15 05:32:28;;;;;;;2.90;2.42;;;;;;;;;;2089897;28;20033;-82
2021/11/15 05:33:47;;;;;;;3.28;2.40;;;;;;;;;;2087069;28;20032;-82
2021/11/15 05:35:06;;;;;;;4.10;2.22;;;;;;;;;;2090703;28;20538;-82
2021/11/15 05:36:25;;;;;;;1.92;1.83;;;;;;;;;;2085141;28;20680;-82
2021/11/15 05:37:44;;;;;;;2.92;1.90;;;;;;;;;;2089600;28;20044;-82
2021/11/15 05:39:04;;;;;;;2.83;2.63;;;;;;;;;;2084799;28;20033;-82
2021/11/15 05:40:23;;;;;;;3.65;2.45;;;;;;;;;;2085428;28;20096;-81
2021/11/15 05:41:42;;;;;;;2.28;2.08;;;;;;;;;;2085485;28;20033;-81
2021/11/15 05:43:01;;;;;;;2.13;1.92;;;;;;;;;;2087523;28;20029;-81
2021/11/15 05:44:20;;;;;;;1.83;1.73;;;;;;;;;;2086301;28;20037;-82
2021/11/15 05:45:39;;;;;;;4.97;2.00;;;;;;;;;;2087850;28;20060;-81
2021/11/15 05:46:58;;;;;;;2.30;2.00;;;;;;;;;;2088341;28;20034;-79
2021/11/15 05:48:16;;;;;;;3.58;1.70;;;;;;;;;;2083924;28;20037;-83
2021/11/15 05:49:35;;;;;;;2.80;1.85;;;;;;;;;;2087487;28;20462;-82
2021/11/15 05:50:54;;;;;;;3.10;1.70;;;;;;;;;;2087123;28;20050;-82
2021/11/15 05:52:15;;;;;;;3.00;1.92;;;;;;;;;;2086375;28;20022;-81
2021/11/15 05:53:36;;;;;;;2.88;1.83;;;;;;;;;;2087394;28;20029;-81
2021/11/15 05:54:54;;;;;;;2.97;1.70;;;;;;;;;;2087901;28;20112;-82
2021/11/15 05:56:13;;;;;;;2.88;2.10;;;;;;;;;;2087965;28;20041;-82
2021/11/15 05:57:33;;;;;;;1.88;1.58;;;;;;;;;;2088709;28;20464;-80
2021/11/15 05:58:51;;;;;;;1.73;1.60;;;;;;;;;;2089395;28;20029;-82
2021/11/15 06:00:13;;;;;;;3.10;1.90;;;;;;;;;;2088093;28;20033;-82
2021/11/15 06:01:32;;;;;;;2.25;1.60;;;;;;;;;;2083473;28;20037;-83
2021/11/15 06:02:51;;;;;;;1.85;1.75;;;;;;;;;;2086013;28;20115;-83
2021/11/15 06:04:10;;;;;;;2.00;1.80;;;;;;;;;;2089051;28;20037;-82
2021/11/15 06:05:29;;;;;;;5.38;2.35;;;;;;;;;;2086520;28;20401;-82
2021/11/15 06:06:50;;;;;;;4.93;2.10;;;;;;;;;;2089050;28;21106;-83
2021/11/15 06:08:09;;;;;;;5.25;2.30;;;;;;;;;;2087967;28;20108;-83
2021/11/15 06:09:28;;;;;;;2.28;2.08;;;;;;;;;;2086970;28;20033;-82
2021/11/15 06:10:47;;;;;;;6.88;2.10;;;;;;;;;;2087623;28;20025;-82
2021/11/15 06:12:07;;;;;;;3.20;2.20;;;;;;;;;;2083797;28;20116;-82
2021/11/15 06:13:25;;;;;;;2.50;2.30;;;;;;;;;;2083484;28;20032;-83
2021/11/15 06:14:44;;;;;;;2.00;1.90;;;;;;;;;;2084655;28;20033;-82
2021/11/15 06:16:04;;;;;;;4.53;1.95;;;;;;;;;;2088031;28;20068;-83
2021/11/15 06:17:23;;;;;;;3.20;1.33;;;;;;;;;;2088400;28;20021;-83
2021/11/15 06:18:43;;;;;;;1.27;1.10;;;;;;;;;;2087534;28;20029;-81
2021/11/15 06:20:03;;;;;;;3.25;1.17;;;;;;;;;;2085918;28;20033;-83
2021/11/15 06:21:22;;;;;;;1.20;1.10;;;;;;;;;;2085920;28;20029;-82
2021/11/15 06:22:41;;;;;;;2.65;1.50;;;;;;;;;;2085900;28;20040;-83
2021/11/15 06:24:01;;;;;;;5.07;1.10;;;;;;;;;;2083907;28;20039;-83
2021/11/15 06:25:20;;;;;;;2.80;1.48;;;;;;;;;;2087747;28;20029;-83
2021/11/15 06:26:39;;;;;;;2.95;1.42;;;;;;;;;;2088746;28;20107;-81
2021/11/15 06:27:58;;;;;;;2.75;1.55;;;;;;;;;;2084970;28;20501;-81
2021/11/15 06:29:18;;;;;;;1.55;1.20;;;;;;;;;;2082067;28;20021;-81
2021/11/15 06:30:37;;;;;;;1.92;1.10;;;;;;;;;;2082811;28;20529;-82
2021/11/15 06:31:56;;;;;;;1.83;1.02;;;;;;;;;;2084483;28;20037;-82
2021/11/15 06:33:14;;;;;;;2.00;1.30;;;;;;;;;;2087125;28;20029;-82
2021/11/15 06:34:33;;;;;;;3.03;1.25;;;;;;;;;;2085333;28;20033;-81
2021/11/15 06:35:52;;;;;;;3.40;1.30;;;;;;;;;;2082880;28;20057;-82
2021/11/15 06:37:12;;;;;;;2.83;1.30;;;;;;;;;;2089673;28;20033;-82
2021/11/15 06:38:31;;;;;;;1.75;1.20;;;;;;;;;;2087784;28;20029;-83
2021/11/15 06:39:50;;;;;;;1.70;1.30;;;;;;;;;;2087995;28;20029;-82
2021/11/15 06:41:10;;;;;;;4.20;1.50;;;;;;;;;;2086989;28;20112;-82
2021/11/15 06:42:29;;;;;;;4.95;1.30;;;;;;;;;;2085558;28;20033;-83
2021/11/15 06:43:47;;;;;;;3.50;1.40;;;;;;;;;;2085293;28;20092;-84
2021/11/15 06:45:07;;;;;;;2.28;1.50;;;;;;;;;;2086745;28;20025;-84
2021/11/15 06:46:29;;;;;;;2.90;1.48;;;;;;;;;;2089632;28;20048;-82
2021/11/15 06:47:48;;;;;;;3.53;1.30;;;;;;;;;;2085695;28;20028;-82
2021/11/15 06:49:06;;;;;;;2.67;1.25;;;;;;;;;;2088470;28;20354;-81
2021/11/15 06:50:25;;;;;;;3.13;1.20;;;;;;;;;;2089577;28;20033;-82
2021/11/15 06:51:45;;;;;;;1.55;1.20;;;;;;;;;;2083517;28;20037;-82
2021/11/15 06:53:04;;;;;;;6.70;1.63;;;;;;;;;;2088482;28;20111;-82
2021/11/15 06:54:23;;;;;;;3.67;1.60;;;;;;;;;;2086210;28;20025;-82
2021/11/15 06:55:43;;;;;;;8.07;1.30;;;;;;;;;;2085275;28;20025;-81
2021/11/15 06:57:02;;;;;;;2.08;1.30;;;;;;;;;;2087533;28;20033;-82
2021/11/15 06:58:21;;;;;;;2.28;1.08;;;;;;;;;;2084715;28;20033;-81
2021/11/15 06:59:40;;;;;;;3.38;1.40;;;;;;;;;;2084181;28;20100;-82
2021/11/15 07:00:59;;;;;;;2.88;1.02;;;;;;;;;;2088979;28;20057;-81
2021/11/15 07:02:18;;;;;;;3.65;1.33;;;;;;;;;;2089705;28;20514;-81
2021/11/15 07:03:37;;;;;;;2.15;1.20;;;;;;;;;;2088980;28;20143;-83
2021/11/15 07:04:56;;;;;;;1.33;1.23;;;;;;;;;;2084868;28;20032;-82
2021/11/15 07:06:15;;;;;;;3.08;1.30;;;;;;;;;;2088051;28;20029;-82
2021/11/15 07:07:36;;;;;;;2.22;0.95;;;;;;;;;;2090083;28;20033;-81
2021/11/15 07:08:55;;;;;;;4.85;1.52;;;;;;;;;;2089640;28;20033;-82
2021/11/15 07:10:15;;;;;;;1.13;1.00;;;;;;;;;;2088505;28;20013;-82
2021/11/15 07:11:35;;;;;;;2.10;1.20;;;;;;;;;;2085442;28;20525;-83
2021/11/15 07:12:54;;;;;;;4.13;1.02;;;;;;;;;;2089635;28;20029;-82
2021/11/15 07:14:13;;;;;;;2.15;1.00;;;;;;;;;;2083821;28;20052;-82
2021/11/15 07:15:32;;;;;;;4.28;1.35;;;;;;;;;;2086036;28;20029;-82
2021/11/15 07:16:51;;;;;;;3.67;1.20;;;;;;;;;;2084810;28;20036;-81
2021/11/15 07:18:09;;;;;;;3.22;2.13;;;;;;;;;;2084753;28;20416;-81
2021/11/15 07:19:28;;;;;;;3.47;1.60;;;;;;;;;;2085930;28;20049;-81
2021/11/15 07:20:47;;;;;;;2.92;1.20;;;;;;;;;;2085597;28;20041;-83
2021/11/15 07:22:06;;;;;;;2.05;1.15;;;;;;;;;;2088911;28;20025;-82
2021/11/15 07:23:25;;;;;;;3.10;1.35;;;;;;;;;;2084874;28;20041;-82
2021/11/15 07:24:44;;;;;;;1.42;1.30;;;;;;;;;;2085396;28;20120;-82
2021/11/15 07:26:03;;;;;;;1.52;1.17;;;;;;;;;;2087630;28;20373;-81
2021/11/15 07:27:22;;;;;;;3.72;1.30;;;;;;;;;;2088534;28;20044;-82
2021/11/15 07:28:42;;;;;;;4.30;1.60;;;;;;;;;;2087048;28;20025;-82
2021/11/15 07:30:02;;;;;;;3.83;1.60;;;;;;;;;;2085033;28;20029;-82
2021/11/15 07:31:21;;;;;;;2.88;1.38;;;;;;;;;;2091075;28;20025;-82
2021/11/15 07:32:40;;;;;;;2.67;1.25;;;;;;;;;;2086598;28;20033;-82
2021/11/15 07:33:59;;;;;;;1.88;1.73;;;;;;;;;;2088489;28;20033;-82
2021/11/15 07:35:19;;;;;;;2.10;1.63;;;;;;;;;;2084776;28;20068;-83
2021/11/15 07:36:38;;;;;;;1.88;1.38;;;;;;;;;;2085718;28;20021;-82
2021/11/15 07:37:56;;;;;;;1.92;1.55;;;;;;;;;;2085256;28;20119;-82
2021/11/15 07:39:15;;;;;;;4.88;2.08;;;;;;;;;;2088253;28;20436;-81
2021/11/15 07:40:34;;;;;;;2.88;1.83;;;;;;;;;;2083135;28;20025;-83
2021/11/15 07:41:53;;;;;;;1.33;1.17;;;;;;;;;;2089165;28;20032;-82
2021/11/15 07:43:13;;;;;;;1.75;1.40;;;;;;;;;;2085208;28;20025;-83
2021/11/15 07:44:32;;;;;;;4.13;1.75;;;;;;;;;;2084448;28;20060;-83
2021/11/15 07:45:51;;;;;;;3.85;1.30;;;;;;;;;;2083415;28;20028;-83
2021/11/15 07:47:10;;;;;;;3.72;1.85;;;;;;;;;;2088602;28;20032;-83
2021/11/15 07:48:29;;;;;;;3.15;1.27;;;;;;;;;;2086271;28;20108;-83
2021/11/15 07:49:48;;;;;;;1.77;1.15;;;;;;;;;;2086490;28;20251;-84
2021/11/15 07:51:07;;;;;;;5.40;1.13;;;;;;;;;;2086252;28;20143;-83
2021/11/15 07:52:26;;;;;;;5.32;1.40;;;;;;;;;;2083686;28;20506;-83
2021/11/15 07:53:45;;;;;;;2.63;1.02;;;;;;;;;;2085303;28;20032;-84
2021/11/15 07:55:05;;;;;;;3.47;1.08;;;;;;;;;;2086636;28;20037;-83
2021/11/15 07:56:24;;;;;;;1.45;1.35;;;;;;;;;;2086617;28;20067;-83